createdAt,value
2023-02-15T00:00:04.616Z,1.90
2023-02-15T00:02:32.022Z,2.00
2023-02-15T00:04:58.712Z,1.90
2023-02-15T00:07:25.319Z,1.90
2023-02-15T00:09:52.057Z,1.90
2023-02-15T00:12:18.708Z,1.90
2023-02-15T00:14:45.577Z,1.90
2023-02-15T00:17:12.176Z,2.00
2023-02-15T00:19:38.838Z,2.00
2023-02-15T00:22:05.452Z,2.20
2023-02-15T00:24:32.041Z,2.30
2023-02-15T00:26:58.869Z,2.40
2023-02-15T00:29:25.440Z,2.50
2023-02-15T00:31:52.787Z,2.50
2023-02-15T00:34:19.500Z,2.60
2023-02-15T00:36:46.284Z,2.80
2023-02-15T00:39:14.624Z,3.00
2023-02-15T00:41:41.255Z,3.20
2023-02-15T00:44:07.922Z,3.40
2023-02-15T00:46:35.791Z,3.50
2023-02-15T00:49:02.390Z,3.60
2023-02-15T00:51:28.997Z,3.70
2023-02-15T00:53:55.654Z,3.80
2023-02-15T00:56:22.597Z,3.70
2023-02-15T00:58:49.174Z,3.70
2023-02-15T01:01:16.181Z,3.80
2023-02-15T01:03:42.816Z,3.90
2023-02-15T01:06:10.861Z,3.90
2023-02-15T01:08:37.481Z,4.00
2023-02-15T01:11:04.093Z,3.90
2023-02-15T01:13:30.741Z,3.90
2023-02-15T01:15:57.896Z,4.00
2023-02-15T01:18:24.518Z,3.90
2023-02-15T01:20:51.438Z,3.90
2023-02-15T01:23:18.068Z,3.80
2023-02-15T01:25:47.761Z,3.80
2023-02-15T01:28:14.614Z,3.90
2023-02-15T01:30:41.244Z,3.90
2023-02-15T01:33:07.851Z,4.00
2023-02-15T01:35:35.106Z,3.90
2023-02-15T01:38:01.743Z,3.90
2023-02-15T01:40:28.330Z,3.90
2023-02-15T01:42:54.938Z,3.90
2023-02-15T01:45:23.992Z,3.90
2023-02-15T01:47:50.569Z,3.80
2023-02-15T01:50:17.148Z,3.90
2023-02-15T01:52:43.736Z,3.90
2023-02-15T01:55:13.960Z,3.90
2023-02-15T01:57:40.664Z,3.90
2023-02-15T02:00:07.289Z,3.90
2023-02-15T02:02:39.300Z,3.90
2023-02-15T02:05:07.519Z,3.90
2023-02-15T02:07:34.136Z,3.90
2023-02-15T02:10:00.753Z,3.90
2023-02-15T02:12:29.394Z,3.90
2023-02-15T02:14:57.292Z,3.90
2023-02-15T02:17:23.942Z,3.90
2023-02-15T02:19:51.593Z,3.80
2023-02-15T02:22:18.322Z,3.70
2023-02-15T02:24:45.180Z,3.70
2023-02-15T02:27:11.782Z,3.70
2023-02-15T02:29:40.243Z,3.70
2023-02-15T02:32:06.870Z,3.50
2023-02-15T02:34:34.774Z,3.50
2023-02-15T02:37:01.333Z,3.50
2023-02-15T02:39:28.222Z,3.40
2023-02-15T02:41:54.810Z,3.40
2023-02-15T02:44:21.437Z,3.40
2023-02-15T02:46:48.447Z,3.40
2023-02-15T02:49:15.192Z,3.40
2023-02-15T02:51:41.982Z,3.30
2023-02-15T02:54:10.414Z,3.30
2023-02-15T02:56:40.598Z,3.20
2023-02-15T02:59:08.069Z,3.20
2023-02-15T03:01:35.319Z,3.10
2023-02-15T03:04:02.372Z,3.00
2023-02-15T03:06:29.268Z,2.90
2023-02-15T03:08:57.420Z,2.90
2023-02-15T03:11:24.010Z,2.80
2023-02-15T03:13:51.940Z,2.70
2023-02-15T03:16:29.315Z,2.70
2023-02-15T03:18:58.790Z,2.60
2023-02-15T03:21:25.513Z,2.60
2023-02-15T03:23:52.149Z,2.40
2023-02-15T03:26:19.621Z,2.40
2023-02-15T03:28:46.305Z,2.30
2023-02-15T03:31:13.104Z,2.30
2023-02-15T03:33:39.828Z,2.20
2023-02-15T03:36:07.666Z,2.20
2023-02-15T03:38:34.313Z,2.10
2023-02-15T03:41:13.153Z,2.10
2023-02-15T03:43:39.757Z,2.10
2023-02-15T03:46:27.609Z,2.10
2023-02-15T03:48:54.331Z,2.20
2023-02-15T03:51:35.995Z,2.30
2023-02-15T03:54:02.630Z,2.40
2023-02-15T03:56:31.530Z,2.60
2023-02-15T03:59:16.680Z,2.60
2023-02-15T04:01:58.349Z,2.70
2023-02-15T04:04:25.700Z,2.60
2023-02-15T04:06:53.607Z,2.70
2023-02-15T04:09:38.949Z,2.80
2023-02-15T04:12:05.549Z,2.80
2023-02-15T04:14:51.281Z,2.90
2023-02-15T04:17:17.905Z,3.00
2023-02-15T04:20:03.065Z,3.00
2023-02-15T04:22:48.649Z,3.00
2023-02-15T04:25:15.595Z,3.10
2023-02-15T04:27:42.180Z,3.10
2023-02-15T04:30:08.906Z,3.10
2023-02-15T04:32:35.544Z,3.20
2023-02-15T04:35:04.166Z,3.30
2023-02-15T04:37:30.791Z,3.30
2023-02-15T04:39:59.382Z,3.30
2023-02-15T04:42:26.498Z,3.30
2023-02-15T04:44:54.305Z,3.30
2023-02-15T04:47:21.087Z,3.40
2023-02-15T04:49:47.773Z,3.40
2023-02-15T04:52:14.350Z,3.40
2023-02-15T04:54:41.957Z,3.40
2023-02-15T04:57:08.741Z,3.60
2023-02-15T04:59:35.345Z,3.70
2023-02-15T05:02:01.912Z,3.90
2023-02-15T05:04:28.515Z,4.00
2023-02-15T05:06:55.310Z,4.10
2023-02-15T05:09:21.928Z,4.10
2023-02-15T05:11:48.495Z,4.20
2023-02-15T05:14:15.112Z,4.20
2023-02-15T05:16:43.035Z,4.20
2023-02-15T05:19:09.670Z,4.30
2023-02-15T05:21:36.242Z,4.40
2023-02-15T05:24:22.809Z,4.40
2023-02-15T05:27:09.589Z,4.40
2023-02-15T05:29:36.272Z,4.40
2023-02-15T05:32:03.509Z,4.30
2023-02-15T05:34:30.165Z,4.20
2023-02-15T05:36:57.134Z,4.20
2023-02-15T05:39:23.803Z,4.20
2023-02-15T05:41:50.379Z,4.10
2023-02-15T05:44:16.937Z,4.10
2023-02-15T05:46:45.636Z,4.10
2023-02-15T05:49:12.245Z,4.10
2023-02-15T05:51:38.812Z,4.00
2023-02-15T05:54:05.386Z,4.00
2023-02-15T05:56:32.085Z,4.00
2023-02-15T05:58:58.725Z,3.90
2023-02-15T06:01:25.478Z,3.90
2023-02-15T06:03:52.954Z,3.90
2023-02-15T06:06:20.710Z,3.80
2023-02-15T06:08:47.356Z,3.80
2023-02-15T06:11:13.920Z,3.90
2023-02-15T06:13:40.604Z,3.90
2023-02-15T06:16:07.527Z,4.00
2023-02-15T06:18:34.380Z,4.10
2023-02-15T06:21:00.955Z,4.10
2023-02-15T06:23:27.696Z,4.20
2023-02-15T06:25:54.542Z,4.30
2023-02-15T06:28:21.191Z,4.50
2023-02-15T06:30:47.823Z,4.70
2023-02-15T06:33:14.453Z,4.80
2023-02-15T06:35:43.176Z,4.80
2023-02-15T06:38:09.922Z,4.80
2023-02-15T06:40:36.656Z,4.80
2023-02-15T06:43:03.302Z,4.80
2023-02-15T06:45:31.110Z,4.70
2023-02-15T06:47:57.703Z,4.70
2023-02-15T06:50:24.300Z,4.60
2023-02-15T06:52:50.897Z,4.70
2023-02-15T06:55:18.786Z,4.60
2023-02-15T06:57:45.369Z,4.60
2023-02-15T07:00:12.051Z,4.60
2023-02-15T07:02:38.696Z,4.50
2023-02-15T07:05:06.092Z,4.60
2023-02-15T07:07:32.879Z,4.60
2023-02-15T07:09:59.449Z,4.60
2023-02-15T07:12:45.293Z,4.60
2023-02-15T07:15:14.129Z,4.60
2023-02-15T07:17:40.758Z,4.60
2023-02-15T07:20:08.714Z,4.70
2023-02-15T07:22:36.946Z,4.60
2023-02-15T07:25:04.927Z,4.60
2023-02-15T07:27:31.511Z,4.50
2023-02-15T07:29:58.166Z,4.40
2023-02-15T07:32:24.810Z,4.30
2023-02-15T07:34:51.620Z,4.30
2023-02-15T07:37:18.189Z,4.30
2023-02-15T07:39:45.045Z,4.20
2023-02-15T07:42:11.616Z,4.20
2023-02-15T07:44:41.097Z,4.20
2023-02-15T07:47:08.116Z,4.30
2023-02-15T07:52:23.600Z,4.50
2023-02-15T07:54:50.473Z,4.70
2023-02-15T07:57:17.045Z,4.90
2023-02-15T07:59:43.642Z,5.10
2023-02-15T08:02:10.271Z,5.40
2023-02-15T08:04:36.896Z,5.60
2023-02-15T08:07:03.587Z,5.70
2023-02-15T08:09:30.265Z,5.90
2023-02-15T08:11:56.868Z,6.00
2023-02-15T08:14:23.582Z,6.20
2023-02-15T08:16:50.491Z,6.30
2023-02-15T08:19:17.225Z,6.50
2023-02-15T08:21:44.066Z,6.60
2023-02-15T08:24:10.678Z,6.80
2023-02-15T08:26:37.420Z,6.80
2023-02-15T08:29:04.172Z,6.90
2023-02-15T08:31:30.837Z,7.00
2023-02-15T08:33:57.699Z,7.00
2023-02-15T08:36:24.657Z,7.00
2023-02-15T08:38:51.288Z,7.00
2023-02-15T08:41:19.885Z,7.10
2023-02-15T08:43:46.512Z,7.10
2023-02-15T08:46:13.204Z,7.10
2023-02-15T08:48:39.852Z,7.20
2023-02-15T08:51:26.593Z,7.10
2023-02-15T08:53:53.308Z,7.10
2023-02-15T08:56:20.000Z,7.10
2023-02-15T08:58:46.673Z,7.10
2023-02-15T09:01:13.403Z,7.10
2023-02-15T09:03:40.059Z,7.20
2023-02-15T09:06:06.739Z,7.40
2023-02-15T09:08:33.483Z,7.60
2023-02-15T09:11:00.557Z,7.70
2023-02-15T09:13:30.109Z,8.00
2023-02-15T09:15:56.702Z,8.20
2023-02-15T09:18:23.365Z,8.40
2023-02-15T09:20:50.305Z,8.70
2023-02-15T09:23:26.875Z,8.90
2023-02-15T09:25:53.736Z,9.10
2023-02-15T09:28:20.308Z,9.30
2023-02-15T09:30:47.012Z,9.50
2023-02-15T09:33:13.767Z,9.70
2023-02-15T09:35:40.353Z,9.90
2023-02-15T09:38:06.943Z,9.90
2023-02-15T09:40:33.536Z,10.00
2023-02-15T09:43:00.145Z,10.00
2023-02-15T09:45:27.093Z,10.10
2023-02-15T09:47:53.655Z,10.10
2023-02-15T09:50:20.293Z,10.10
2023-02-15T09:52:48.935Z,10.10
2023-02-15T09:55:15.809Z,10.20
2023-02-15T09:57:42.398Z,10.20
2023-02-15T10:00:09.023Z,10.30
2023-02-15T10:02:39.420Z,10.40
2023-02-15T10:05:06.359Z,10.60
2023-02-15T10:07:33.014Z,10.70
2023-02-15T10:09:59.722Z,10.90
2023-02-15T10:12:26.401Z,11.20
2023-02-15T10:14:53.043Z,11.40
2023-02-15T10:17:19.628Z,11.60
2023-02-15T10:19:46.282Z,11.80
2023-02-15T10:22:12.889Z,11.90
2023-02-15T10:24:41.188Z,11.70
2023-02-15T10:27:08.698Z,11.60
2023-02-15T10:29:35.414Z,11.70
2023-02-15T10:32:02.167Z,11.80
2023-02-15T10:34:28.844Z,11.90
2023-02-15T10:36:55.407Z,12.00
2023-02-15T10:39:22.076Z,12.00
2023-02-15T10:41:48.650Z,12.10
2023-02-15T10:44:15.295Z,12.30
2023-02-15T10:46:41.940Z,12.50
2023-02-15T10:49:08.619Z,12.60
2023-02-15T10:51:35.239Z,12.50
2023-02-15T10:54:01.848Z,12.60
2023-02-15T10:56:29.363Z,12.60
2023-02-15T10:58:55.971Z,12.50
2023-02-15T11:01:23.697Z,12.30
2023-02-15T11:03:50.436Z,12.20
2023-02-15T11:06:17.177Z,12.10
2023-02-15T11:08:43.824Z,12.30
2023-02-15T11:11:10.519Z,12.60
2023-02-15T11:13:37.115Z,12.90
2023-02-15T11:16:03.806Z,13.10
2023-02-15T11:18:30.439Z,13.30
2023-02-15T11:20:57.058Z,13.70
2023-02-15T11:23:23.701Z,14.00
2023-02-15T11:25:50.307Z,14.10
2023-02-15T11:28:16.922Z,14.10
2023-02-15T11:30:45.332Z,14.10
2023-02-15T11:33:15.963Z,14.30
2023-02-15T11:35:42.585Z,14.70
2023-02-15T11:38:09.198Z,14.90
2023-02-15T11:40:36.149Z,15.10
2023-02-15T11:43:04.041Z,15.20
2023-02-15T11:45:30.850Z,15.10
2023-02-15T11:47:57.634Z,15.20
2023-02-15T11:50:24.271Z,15.50
2023-02-15T11:52:50.828Z,15.70
2023-02-15T11:55:17.459Z,15.80
2023-02-15T11:57:44.009Z,15.80
2023-02-15T12:00:10.637Z,15.80
2023-02-15T12:02:37.314Z,15.80
2023-02-15T12:05:05.112Z,15.80
2023-02-15T12:07:31.717Z,16.00
2023-02-15T12:09:58.397Z,15.90
2023-02-15T12:12:26.242Z,15.90
2023-02-15T12:14:52.875Z,15.40
2023-02-15T12:17:19.488Z,14.90
2023-02-15T12:19:50.094Z,14.50
2023-02-15T12:22:16.907Z,14.40
2023-02-15T12:24:43.477Z,14.30
2023-02-15T12:27:10.093Z,14.20
2023-02-15T12:29:36.716Z,14.10
2023-02-15T12:34:55.494Z,14.20
2023-02-15T12:37:22.076Z,14.20
2023-02-15T12:39:52.573Z,14.10
2023-02-15T12:42:21.038Z,14.20
2023-02-15T12:44:47.639Z,14.10
2023-02-15T12:47:14.272Z,14.00
2023-02-15T12:49:47.664Z,14.00
2023-02-15T12:52:14.665Z,14.00
2023-02-15T12:54:41.456Z,14.00
2023-02-15T12:57:08.342Z,14.00
2023-02-15T12:59:34.968Z,14.00
2023-02-15T13:02:03.764Z,14.10
2023-02-15T13:04:30.499Z,14.10
2023-02-15T13:06:57.149Z,14.10
2023-02-15T13:09:23.786Z,14.10
2023-02-15T13:11:50.665Z,14.10
2023-02-15T13:14:17.309Z,14.00
2023-02-15T13:16:43.958Z,14.00
2023-02-15T13:19:12.897Z,14.00
2023-02-15T13:21:40.807Z,14.00
2023-02-15T13:24:07.531Z,14.10
2023-02-15T13:26:34.214Z,14.20
2023-02-15T13:29:00.782Z,14.20
2023-02-15T13:31:28.782Z,14.20
2023-02-15T13:33:55.492Z,14.20
2023-02-15T13:36:22.187Z,14.20
2023-02-15T13:38:48.893Z,14.10
2023-02-15T13:41:16.800Z,14.10
2023-02-15T13:43:43.562Z,14.20
2023-02-15T13:46:10.249Z,14.20
2023-02-15T13:48:46.058Z,14.20
2023-02-15T13:51:18.342Z,14.20
2023-02-15T13:53:44.949Z,14.20
2023-02-15T13:56:11.536Z,14.20
2023-02-15T13:58:38.090Z,14.20
2023-02-15T14:01:06.735Z,14.20
2023-02-15T14:03:33.453Z,14.30
2023-02-15T14:06:00.460Z,14.30
2023-02-15T14:08:27.022Z,14.30
2023-02-15T14:10:53.753Z,14.30
2023-02-15T14:13:20.350Z,14.30
2023-02-15T14:15:46.950Z,14.30
2023-02-15T14:18:13.541Z,14.20
2023-02-15T14:20:40.129Z,14.30
2023-02-15T14:23:06.999Z,14.30
2023-02-15T14:25:33.644Z,14.30
2023-02-15T14:28:00.261Z,14.40
2023-02-15T14:30:27.716Z,14.40
2023-02-15T14:32:55.603Z,14.40
2023-02-15T14:35:22.229Z,14.40
2023-02-15T14:37:48.797Z,14.40
2023-02-15T14:40:34.251Z,14.40
2023-02-15T14:43:02.110Z,14.40
2023-02-15T14:45:28.807Z,14.40
2023-02-15T14:47:55.508Z,14.40
2023-02-15T14:50:22.419Z,14.40
2023-02-15T14:52:52.148Z,14.40
2023-02-15T14:55:22.285Z,14.40
2023-02-15T14:57:49.250Z,14.40
2023-02-15T15:00:17.221Z,14.30
2023-02-15T15:02:48.382Z,14.30
2023-02-15T15:05:16.308Z,14.30
2023-02-15T15:07:43.733Z,14.40
2023-02-15T15:10:17.089Z,14.40
2023-02-15T15:12:44.233Z,14.40
2023-02-15T15:15:10.900Z,14.40
2023-02-15T15:17:40.279Z,14.30
2023-02-15T15:20:08.420Z,14.40
2023-02-15T15:22:35.340Z,14.40
2023-02-15T15:25:02.045Z,14.40
2023-02-15T15:27:28.720Z,14.70
2023-02-15T15:29:55.357Z,14.90
2023-02-15T15:32:22.286Z,14.90
2023-02-15T15:34:48.926Z,15.20
2023-02-15T15:37:15.514Z,15.70
2023-02-15T15:39:42.103Z,15.80
2023-02-15T15:42:08.823Z,15.60
2023-02-15T15:44:35.464Z,15.30
2023-02-15T15:47:02.100Z,15.30
2023-02-15T15:49:28.678Z,15.70
2023-02-15T15:51:55.799Z,16.20
2023-02-15T15:54:22.345Z,16.60
2023-02-15T15:56:48.999Z,16.60
2023-02-15T15:59:15.555Z,16.60
2023-02-15T16:01:42.445Z,16.70
2023-02-15T16:04:09.054Z,16.40
2023-02-15T16:06:35.882Z,16.20
2023-02-15T16:09:02.462Z,16.00
2023-02-15T16:11:29.234Z,15.90
2023-02-15T16:13:55.891Z,15.50
2023-02-15T16:16:22.810Z,14.90
2023-02-15T16:18:49.411Z,14.30
2023-02-15T16:21:16.319Z,13.90
2023-02-15T16:23:44.521Z,13.70
2023-02-15T16:26:11.104Z,13.50
2023-02-15T16:28:37.694Z,13.30
2023-02-15T16:31:05.647Z,13.10
2023-02-15T16:33:32.390Z,13.00
2023-02-15T16:35:59.020Z,12.90
2023-02-15T16:38:25.754Z,12.80
2023-02-15T16:40:53.594Z,12.70
2023-02-15T16:43:20.389Z,12.60
2023-02-15T16:45:47.027Z,12.50
2023-02-15T16:48:13.634Z,12.40
2023-02-15T16:50:40.247Z,12.30
2023-02-15T16:53:06.945Z,12.20
2023-02-15T16:55:34.190Z,12.10
2023-02-15T16:58:00.774Z,11.90
2023-02-15T17:00:27.466Z,11.80
2023-02-15T17:02:56.635Z,11.70
2023-02-15T17:05:23.426Z,11.60
2023-02-15T17:07:50.290Z,11.50
2023-02-15T17:10:16.878Z,11.50
2023-02-15T17:12:43.684Z,11.40
2023-02-15T17:15:12.379Z,11.30
2023-02-15T17:17:39.132Z,11.30
2023-02-15T17:20:05.824Z,11.10
2023-02-15T17:22:32.597Z,11.10
2023-02-15T17:24:59.258Z,11.00
2023-02-15T17:27:25.961Z,11.00
2023-02-15T17:29:53.012Z,11.00
2023-02-15T17:32:20.449Z,11.00
2023-02-15T17:34:47.130Z,11.00
2023-02-15T17:37:13.752Z,11.00
2023-02-15T17:39:41.513Z,10.90
2023-02-15T17:42:10.525Z,10.90
2023-02-15T17:44:37.173Z,10.80
2023-02-15T17:47:03.733Z,10.80
2023-02-15T17:49:34.803Z,10.70
2023-02-15T17:52:05.762Z,10.70
2023-02-15T17:54:51.147Z,10.60
2023-02-15T17:57:20.901Z,10.60
2023-02-15T18:00:06.330Z,10.70
2023-02-15T18:02:58.542Z,10.70
2023-02-15T18:05:43.914Z,10.70
2023-02-15T18:08:29.079Z,10.70
2023-02-15T18:11:15.653Z,10.70
2023-02-15T18:13:42.273Z,10.80
2023-02-15T18:16:08.868Z,10.80
2023-02-15T18:18:35.503Z,10.80
2023-02-15T18:21:02.758Z,10.80
2023-02-15T18:23:29.521Z,10.80
2023-02-15T18:25:56.099Z,10.80
2023-02-15T18:28:22.719Z,10.80
2023-02-15T18:30:49.559Z,10.80
2023-02-15T18:33:16.190Z,10.70
2023-02-15T18:35:42.755Z,10.70
2023-02-15T18:38:09.348Z,10.60
2023-02-15T18:40:35.938Z,10.60
2023-02-15T18:43:02.744Z,10.60
2023-02-15T18:45:32.939Z,10.60
2023-02-15T18:47:59.749Z,10.50
2023-02-15T18:50:26.313Z,10.50
2023-02-15T18:52:53.016Z,10.50
2023-02-15T18:55:19.732Z,10.40
2023-02-15T18:57:46.370Z,10.30
2023-02-15T19:00:12.955Z,10.30
2023-02-15T19:02:41.209Z,10.30
2023-02-15T19:05:07.885Z,10.30
2023-02-15T19:07:34.488Z,10.30
2023-02-15T19:10:01.074Z,10.30
2023-02-15T19:12:28.089Z,10.30
2023-02-15T19:14:56.622Z,10.30
2023-02-15T19:17:23.260Z,10.30
2023-02-15T19:19:50.029Z,10.30
2023-02-15T19:22:17.890Z,10.30
2023-02-15T19:24:44.600Z,10.30
2023-02-15T19:27:11.188Z,10.30
2023-02-15T19:29:37.767Z,10.30
2023-02-15T19:32:04.670Z,10.30
2023-02-15T19:34:31.324Z,10.30
2023-02-15T19:36:57.958Z,10.20
2023-02-15T19:39:24.622Z,10.20
2023-02-15T19:41:51.303Z,10.20
2023-02-15T19:44:18.288Z,10.20
2023-02-15T19:46:44.895Z,10.10
2023-02-15T19:49:11.567Z,10.10
2023-02-15T19:51:39.390Z,10.10
2023-02-15T19:54:05.958Z,10.00
2023-02-15T19:56:32.711Z,9.90
2023-02-15T19:58:59.346Z,9.90
2023-02-15T20:01:26.202Z,9.90
2023-02-15T20:03:53.400Z,9.90
2023-02-15T20:06:20.052Z,9.90
2023-02-15T20:08:46.671Z,9.80
2023-02-15T20:11:13.461Z,9.80
2023-02-15T20:13:40.445Z,9.70
2023-02-15T20:16:08.345Z,9.70
2023-02-15T20:18:35.023Z,9.60
2023-02-15T20:21:02.620Z,9.60
2023-02-15T20:23:31.337Z,9.60
2023-02-15T20:25:58.202Z,9.60
2023-02-15T20:28:24.783Z,9.60
2023-02-15T20:30:51.649Z,9.60
2023-02-15T20:33:18.513Z,9.70
2023-02-15T20:35:45.164Z,9.60
2023-02-15T20:38:11.790Z,9.60
2023-02-15T20:40:58.361Z,9.70
2023-02-15T20:43:25.243Z,9.70
2023-02-15T20:45:51.833Z,9.70
2023-02-15T20:48:18.448Z,9.70
2023-02-15T20:50:47.203Z,9.80
2023-02-15T20:53:13.876Z,9.80
2023-02-15T20:55:40.456Z,9.80
2023-02-15T20:58:07.153Z,9.80
2023-02-15T21:00:33.932Z,9.90
2023-02-15T21:03:01.720Z,9.80
2023-02-15T21:05:28.484Z,9.80
2023-02-15T21:07:55.104Z,9.80
2023-02-15T21:10:21.904Z,9.80
2023-02-15T21:12:48.573Z,9.80
2023-02-15T21:15:15.163Z,9.80
2023-02-15T21:17:41.821Z,9.80
2023-02-15T21:20:08.502Z,9.80
2023-02-15T21:22:55.462Z,9.80
2023-02-15T21:25:23.263Z,9.80
2023-02-15T21:27:49.869Z,9.80
2023-02-15T21:30:16.514Z,9.80
2023-02-15T21:32:44.206Z,9.80
2023-02-15T21:35:10.776Z,9.80
2023-02-15T21:37:39.732Z,9.70
2023-02-15T21:40:07.225Z,9.70
2023-02-15T21:42:52.976Z,9.70
2023-02-15T21:45:38.344Z,9.60
2023-02-15T21:48:05.194Z,9.50
2023-02-15T21:50:50.948Z,9.50
2023-02-15T21:53:17.585Z,9.50
2023-02-15T21:55:44.226Z,9.40
2023-02-15T21:58:10.843Z,9.30
2023-02-15T22:00:37.845Z,9.30
2023-02-15T22:03:04.601Z,9.30
2023-02-15T22:05:31.228Z,9.30
2023-02-15T22:07:57.888Z,9.40
2023-02-15T22:10:24.523Z,9.40
2023-02-15T22:12:51.373Z,9.40
2023-02-15T22:15:18.001Z,9.50
2023-02-15T22:17:44.609Z,9.50
2023-02-15T22:20:11.210Z,9.60
2023-02-15T22:22:37.964Z,9.80
2023-02-15T22:25:04.724Z,9.80
2023-02-15T22:27:31.603Z,9.90
2023-02-15T22:29:58.296Z,10.00
2023-02-15T22:32:25.124Z,10.00
2023-02-15T22:34:51.895Z,10.10
2023-02-15T22:37:18.550Z,10.10
2023-02-15T22:39:45.140Z,10.10
2023-02-15T22:42:11.763Z,10.10
2023-02-15T22:44:38.441Z,10.20
2023-02-15T22:47:05.036Z,10.20
2023-02-15T22:49:31.610Z,10.20
2023-02-15T22:51:59.239Z,10.20
2023-02-15T22:54:25.848Z,10.20
2023-02-15T22:56:52.501Z,10.20
2023-02-15T22:59:19.107Z,10.30
2023-02-15T23:01:46.897Z,10.30
2023-02-15T23:04:13.557Z,10.30
2023-02-15T23:06:40.141Z,10.30
2023-02-15T23:09:06.719Z,10.30
2023-02-15T23:11:33.717Z,10.30
2023-02-15T23:14:02.910Z,10.30
2023-02-15T23:16:29.498Z,10.20
2023-02-15T23:18:56.172Z,10.20
2023-02-15T23:21:24.026Z,10.10
2023-02-15T23:23:50.645Z,10.00
2023-02-15T23:26:17.261Z,9.90
2023-02-15T23:28:44.028Z,9.80
2023-02-15T23:31:10.815Z,9.70
2023-02-15T23:33:37.479Z,9.70
2023-02-15T23:36:04.070Z,9.60
2023-02-15T23:38:30.743Z,9.60
2023-02-15T23:41:16.213Z,9.50
2023-02-15T23:43:42.888Z,9.50
2023-02-15T23:46:09.620Z,9.50
2023-02-15T23:48:36.269Z,9.60
2023-02-15T23:51:03.699Z,9.70
2023-02-15T23:53:30.581Z,9.80
2023-02-15T23:55:57.770Z,9.80
2023-02-15T23:58:24.734Z,9.80
